Impacts TAF Board INFO
FOR SITUATIONAL AWARENESS. NOT TO BE USED FOR FLIGHT PLANNING PURPOSES.
IDs:

KBOS - Boston/Logan Intl, MA, US

Issued at 2339 UTC 12 Dec 2017
Updated at 2345 UTC 12 Dec 2017
Potential Impact None Slight Moderate High
Time2314Z 13/00Z 13/01Z 13/02Z 13/03Z 13/04Z 13/05Z 13/06Z 13/07Z 13/08Z 13/09Z 13/10Z 13/11Z 13/12Z>>
Type OBS PRVL PRVL PRVL PRVL PRVL PRVL PRVL PRVL PRVL PRVL PRVL PRVL PRVL
VIS 10 6 6 6 >6 >6 >6 >6 >6 >6 >6 >6 >6 >6
CIG 13 15 15 15 70 70 70 70 70 70 70 70 70 --
Cover OVC OVC OVC OVC OVC OVC OVC OVC OVC OVC OVC OVC OVC SCT
FltCat MVFR MVFR MVFR MVFR VFR VFR VFR VFR VFR VFR VFR VFR VFR VFR
WX -- BR VCSH BR VCSH BR VCSH -- -- -- -- -- -- -- -- -- --
WDir 190 200 200 200 260 260 260 260 260 260 260 260 260 270
WSpd 3 6 6 6 7 7 7 7 7 7 7 7 7 14
WGst -- -- -- -- -- -- -- -- -- -- -- -- -- 27

Raw TAF
KBOS 122339Z 1300/1406 20006KT 6SM BR VCSH OVC015
  FM130300 26007KT P6SM OVC070
  FM131200 27014G27KT P6SM SCT090
  FM131600 27017G30KT P6SM BKN050
  FM132300 27018G36KT P6SM FEW150


Raw METAR
KBOS 122314Z 19003KT 10SM BKN013 BKN030 OVC120 07/06 A2931 RMK AO2 T00670061
KBOS 122254Z 16004KT 10SM FEW027 SCT120 OVC200 07/06 A2932 RMK AO2 SLP929 T00720061
KBOS 122238Z 15004KT 10SM FEW016 FEW031 BKN120 07/06 A2933 RMK AO2 T00720061
KBOS 122206Z 20007KT 10SM BKN025 OVC110 07/07 A2935 RMK AO2 T00720067
KBOS 122154Z 14013KT 10SM SCT021 BKN060 OVC110 07/06 A2936 RMK AO2 SLP941 T00720061
KBOS 122111Z 14010KT 10SM FEW011 SCT033 OVC100 07/06 A2938 RMK AO2 LTG DSNT E T00720061
KBOS 122054Z 16008KT 10SM FEW012 BKN019 OVC040 07/06 A2939 RMK AO2 SLP953 60000 T00720061 56029
KBOS 122037Z 12012KT 10SM FEW012 BKN019 OVC040 07/06 A2940 RMK AO2 T00720061

METAR Board
Radar Display
Forecast Discussion

FOR SITUATIONAL AWARENESS. NOT TO BE USED FOR FLIGHT PLANNING PURPOSES.